createdAt,value
2022-11-12T00:02:12.960Z,14.10
2022-11-12T00:04:59.798Z,15.00
2022-11-12T00:07:46.338Z,13.60
2022-11-12T00:10:33.508Z,12.80
2022-11-12T00:13:20.012Z,13.60
2022-11-12T00:16:06.623Z,13.20
2022-11-12T00:18:53.430Z,13.20
2022-11-12T00:21:39.730Z,12.60
2022-11-12T00:24:26.337Z,12.60
2022-11-12T00:27:13.313Z,12.40
2022-11-12T00:29:59.997Z,13.00
2022-11-12T00:32:46.725Z,12.70
2022-11-12T00:35:33.961Z,11.80
2022-11-12T00:38:20.728Z,12.20
2022-11-12T00:41:07.371Z,12.00
2022-11-12T00:43:54.287Z,12.30
2022-11-12T00:46:40.815Z,11.70
2022-11-12T00:49:27.281Z,11.70
2022-11-12T00:52:13.922Z,12.20
2022-11-12T00:55:00.295Z,12.10
2022-11-12T00:57:46.787Z,11.20
2022-11-12T01:00:33.050Z,12.30
2022-11-12T01:03:19.727Z,11.40
2022-11-12T01:06:13.043Z,10.70
2022-11-12T01:08:59.736Z,9.60
2022-11-12T01:11:46.706Z,8.80
2022-11-12T01:14:33.841Z,8.70
2022-11-12T01:17:20.055Z,8.60
2022-11-12T01:20:07.475Z,7.50
2022-11-12T01:22:54.103Z,7.50
2022-11-12T01:25:41.040Z,7.50
2022-11-12T01:28:30.699Z,6.30
2022-11-12T01:31:26.960Z,7.50
2022-11-12T01:34:13.613Z,8.00
2022-11-12T01:37:00.179Z,8.10
2022-11-12T01:39:46.968Z,8.00
2022-11-12T01:42:33.778Z,9.00
2022-11-12T01:45:20.761Z,9.90
2022-11-12T01:48:13.784Z,11.20
2022-11-12T01:51:02.141Z,10.00
2022-11-12T01:53:53.182Z,7.30
2022-11-12T01:56:42.437Z,6.40
2022-11-12T01:59:38.178Z,5.50
2022-11-12T02:02:24.809Z,5.50
2022-11-12T02:05:12.364Z,4.20
2022-11-12T02:08:00.844Z,4.40
2022-11-12T02:10:47.742Z,6.50
2022-11-12T02:13:53.058Z,7.20
2022-11-12T02:16:42.087Z,7.40
2022-11-12T02:19:28.669Z,8.30
2022-11-12T02:22:15.393Z,8.90
2022-11-12T02:25:01.811Z,9.30
2022-11-12T02:27:51.767Z,9.00
2022-11-12T02:30:46.186Z,9.30
2022-11-12T02:33:32.580Z,9.10
2022-11-12T02:36:20.035Z,10.10
2022-11-12T02:39:06.437Z,8.70
2022-11-12T02:41:53.121Z,8.20
2022-11-12T02:44:39.838Z,8.60
2022-11-12T02:47:26.143Z,8.90
2022-11-12T02:50:13.129Z,8.70
2022-11-12T02:52:59.616Z,8.30
2022-11-12T02:55:46.065Z,9.20
2022-11-12T02:58:33.201Z,8.20
2022-11-12T03:01:19.439Z,6.80
2022-11-12T03:04:05.707Z,8.10
2022-11-12T03:06:52.671Z,7.50
2022-11-12T03:09:39.589Z,7.50
2022-11-12T03:12:26.163Z,6.70
2022-11-12T03:15:14.669Z,6.50
2022-11-12T03:18:01.291Z,6.10
2022-11-12T03:20:51.906Z,6.00
2022-11-12T03:23:38.298Z,4.80
2022-11-12T03:26:25.076Z,6.10
2022-11-12T03:29:11.862Z,6.20
2022-11-12T03:31:58.275Z,6.60
2022-11-12T03:34:44.753Z,5.10
2022-11-12T03:37:31.553Z,4.50
2022-11-12T03:40:18.708Z,4.10
2022-11-12T03:43:05.523Z,5.60
2022-11-12T03:45:52.088Z,4.70
2022-11-12T03:48:38.590Z,4.40
2022-11-12T03:51:24.723Z,5.60
2022-11-12T03:54:11.518Z,5.40
2022-11-12T03:56:58.047Z,6.10
2022-11-12T03:59:44.326Z,5.00
2022-11-12T04:02:32.498Z,5.60
2022-11-12T04:05:37.689Z,6.30
2022-11-12T04:08:37.234Z,5.40
2022-11-12T04:11:23.691Z,5.40
2022-11-12T04:14:10.002Z,6.30
2022-11-12T04:17:15.491Z,7.40
2022-11-12T04:20:20.753Z,6.10
2022-11-12T04:23:07.225Z,5.80
2022-11-12T04:26:13.211Z,4.40
2022-11-12T04:29:18.255Z,4.30
2022-11-12T04:32:04.681Z,4.10
2022-11-12T04:34:52.076Z,4.70
2022-11-12T04:37:44.877Z,4.70
2022-11-12T04:40:50.655Z,4.70
2022-11-12T04:43:55.526Z,5.90
2022-11-12T04:46:42.096Z,6.40
2022-11-12T04:49:28.910Z,6.50
2022-11-12T04:52:15.576Z,6.70
2022-11-12T04:55:01.935Z,7.20
2022-11-12T04:57:48.498Z,7.50
2022-11-12T05:00:35.298Z,6.30
2022-11-12T05:03:21.965Z,7.50
2022-11-12T05:06:28.360Z,7.50
2022-11-12T05:09:14.843Z,6.80
2022-11-12T05:12:01.555Z,6.00
2022-11-12T05:14:47.789Z,5.70
2022-11-12T05:17:34.799Z,6.70
2022-11-12T05:20:21.352Z,6.40
2022-11-12T05:23:08.109Z,6.00
2022-11-12T05:25:54.847Z,6.10
2022-11-12T05:28:41.454Z,6.30
2022-11-12T05:31:27.717Z,5.90
2022-11-12T05:34:17.447Z,5.60
2022-11-12T05:37:07.966Z,6.40
2022-11-12T05:39:54.708Z,6.60
2022-11-12T05:42:40.803Z,6.10
2022-11-12T05:45:27.367Z,6.30
2022-11-12T05:48:16.937Z,6.40
2022-11-12T05:51:12.985Z,7.00
2022-11-12T05:54:01.292Z,6.60
2022-11-12T05:56:52.221Z,6.30
2022-11-12T05:59:39.922Z,7.00
2022-11-12T06:02:26.401Z,7.40
2022-11-12T06:05:13.395Z,6.30
2022-11-12T06:08:00.847Z,7.30
2022-11-12T06:10:52.274Z,8.40
2022-11-12T06:13:38.707Z,8.20
2022-11-12T06:16:26.604Z,8.60
2022-11-12T06:19:13.450Z,10.10
2022-11-12T06:22:00.111Z,10.80
2022-11-12T06:24:46.846Z,10.90
2022-11-12T06:27:33.577Z,9.30
2022-11-12T06:30:25.525Z,8.70
2022-11-12T06:33:12.979Z,9.70
2022-11-12T06:36:03.356Z,10.20
2022-11-12T06:38:50.103Z,10.30
2022-11-12T06:41:36.497Z,9.40
2022-11-12T06:44:23.230Z,9.70
2022-11-12T06:47:11.955Z,10.60
2022-11-12T06:49:58.384Z,10.50
2022-11-12T06:52:45.296Z,11.40
2022-11-12T06:55:32.256Z,11.50
2022-11-12T06:58:18.930Z,12.80
2022-11-12T07:01:11.548Z,12.00
2022-11-12T07:03:59.251Z,11.70
2022-11-12T07:06:45.880Z,11.10
2022-11-12T07:09:33.052Z,13.40
2022-11-12T07:12:20.037Z,41.00
2022-11-12T07:15:06.904Z,10.50
2022-11-12T07:17:57.533Z,9.60
2022-11-12T07:20:44.884Z,10.00
2022-11-12T07:23:33.991Z,11.50
2022-11-12T07:26:23.482Z,10.00
2022-11-12T07:29:24.844Z,10.60
2022-11-12T07:32:20.742Z,10.40
2022-11-12T07:35:09.163Z,9.60
2022-11-12T07:37:59.389Z,9.30
2022-11-12T07:40:46.268Z,10.00
2022-11-12T07:43:34.920Z,9.20
2022-11-12T07:46:23.990Z,8.10
2022-11-12T07:49:12.793Z,7.50
2022-11-12T07:52:00.046Z,8.20
2022-11-12T07:54:47.351Z,7.70
2022-11-12T07:57:35.060Z,8.20
2022-11-12T08:00:23.934Z,8.80
2022-11-12T08:03:12.545Z,8.70
2022-11-12T08:06:01.935Z,8.00
2022-11-12T08:08:56.787Z,8.80
2022-11-12T08:11:43.726Z,8.00
2022-11-12T08:14:30.241Z,8.60
2022-11-12T08:17:16.895Z,7.90
2022-11-12T08:20:04.056Z,8.60
2022-11-12T08:22:51.651Z,9.60
2022-11-12T08:25:38.527Z,8.70
2022-11-12T08:28:25.768Z,8.50
2022-11-12T08:31:15.884Z,9.00
2022-11-12T08:34:12.433Z,9.00
2022-11-12T08:37:00.747Z,8.80
2022-11-12T08:39:48.081Z,9.70
2022-11-12T08:42:35.024Z,9.10
2022-11-12T08:45:21.795Z,9.20
2022-11-12T08:48:11.578Z,9.20
2022-11-12T08:50:58.685Z,8.90
2022-11-12T08:53:45.776Z,9.30
2022-11-12T08:56:32.228Z,9.20
2022-11-12T08:59:19.219Z,8.90
2022-11-12T09:02:06.977Z,8.60
2022-11-12T09:04:53.433Z,9.20
2022-11-12T09:07:49.814Z,8.90
2022-11-12T09:10:38.421Z,8.70
2022-11-12T09:13:25.035Z,8.50
2022-11-12T09:16:11.711Z,9.30
2022-11-12T09:18:57.974Z,8.70
2022-11-12T09:21:44.686Z,9.00
2022-11-12T09:24:31.474Z,9.10
2022-11-12T09:27:18.106Z,9.90
2022-11-12T09:30:06.818Z,9.40
2022-11-12T09:32:58.064Z,9.50
2022-11-12T09:35:46.549Z,10.00
2022-11-12T09:38:33.306Z,11.10
2022-11-12T09:41:27.469Z,9.70
2022-11-12T09:44:18.332Z,9.50
2022-11-12T09:47:17.987Z,10.30
2022-11-12T09:50:28.973Z,10.90
2022-11-12T09:53:34.609Z,9.50
2022-11-12T09:56:22.706Z,9.40
2022-11-12T09:59:13.972Z,9.80
2022-11-12T10:02:26.084Z,9.70
2022-11-12T10:05:29.251Z,9.10
2022-11-12T10:08:39.352Z,9.10
2022-11-12T10:12:04.434Z,9.70
2022-11-12T10:15:34.253Z,10.20
2022-11-12T10:18:39.923Z,9.50
2022-11-12T10:22:04.868Z,9.90
2022-11-12T10:24:52.534Z,10.30
2022-11-12T10:27:42.675Z,10.20
2022-11-12T10:30:30.051Z,10.90
2022-11-12T10:33:21.035Z,11.80
2022-11-12T10:36:34.799Z,14.00
2022-11-12T10:39:39.208Z,11.90
2022-11-12T10:42:31.140Z,12.70
2022-11-12T10:45:23.087Z,13.70
2022-11-12T10:48:41.176Z,13.80
2022-11-12T10:51:58.149Z,14.00
2022-11-12T10:54:49.670Z,16.80
2022-11-12T10:57:39.525Z,15.70
2022-11-12T11:00:27.070Z,16.50
2022-11-12T11:03:24.156Z,16.30
2022-11-12T11:06:17.674Z,17.00
2022-11-12T11:09:13.450Z,18.50
2022-11-12T11:12:01.913Z,18.50
2022-11-12T11:15:07.958Z,18.80
2022-11-12T11:17:55.483Z,18.80
2022-11-12T11:20:47.618Z,20.00
2022-11-12T11:24:02.348Z,19.20
2022-11-12T11:27:14.557Z,18.60
2022-11-12T11:30:12.458Z,20.10
2022-11-12T11:33:43.811Z,20.80
2022-11-12T11:36:43.734Z,19.40
2022-11-12T11:39:56.790Z,19.00
2022-11-12T11:42:52.447Z,20.60
2022-11-12T11:45:59.503Z,22.20
2022-11-12T11:48:53.851Z,19.60
2022-11-12T11:52:22.401Z,20.30
2022-11-12T11:55:38.684Z,21.20
2022-11-12T11:58:43.870Z,22.70
2022-11-12T12:02:05.248Z,21.80
2022-11-12T12:04:58.738Z,21.10
2022-11-12T12:08:02.425Z,21.50
2022-11-12T12:11:09.398Z,23.10
2022-11-12T12:14:06.782Z,24.20
2022-11-12T12:17:18.166Z,21.50
2022-11-12T12:20:30.370Z,20.90
2022-11-12T12:23:33.498Z,22.20
2022-11-12T12:26:33.925Z,32.40
2022-11-12T12:29:39.663Z,21.30
2022-11-12T12:32:41.190Z,33.10
2022-11-12T12:35:44.567Z,21.30
2022-11-12T12:38:45.787Z,19.90
2022-11-12T12:41:37.670Z,20.20
2022-11-12T12:44:50.285Z,33.50
2022-11-12T12:47:43.412Z,20.60
2022-11-12T12:50:30.958Z,27.00
2022-11-12T12:53:31.643Z,19.20
2022-11-12T12:56:46.547Z,20.20
2022-11-12T12:59:33.901Z,19.50
2022-11-12T13:02:23.753Z,19.00
2022-11-12T13:05:25.054Z,18.30
2022-11-12T13:08:23.962Z,20.10
2022-11-12T13:11:11.139Z,19.50
2022-11-12T13:14:37.118Z,19.00
2022-11-12T13:17:45.488Z,18.20
2022-11-12T13:20:35.887Z,18.10
2022-11-12T13:24:09.698Z,19.30
2022-11-12T13:27:02.819Z,18.50
2022-11-12T13:29:51.382Z,18.20
2022-11-12T13:32:54.548Z,17.50
2022-11-12T13:35:42.485Z,19.60
2022-11-12T13:38:38.374Z,19.00
2022-11-12T13:41:46.439Z,17.70
2022-11-12T13:44:35.507Z,18.40
2022-11-12T13:47:25.513Z,18.10
2022-11-12T13:50:20.663Z,22.30
2022-11-12T13:53:13.849Z,19.00
2022-11-12T13:56:02.734Z,17.90
2022-11-12T13:58:50.963Z,18.70
2022-11-12T14:01:39.118Z,18.70
2022-11-12T14:04:27.220Z,18.40
2022-11-12T14:07:24.761Z,17.70
2022-11-12T14:10:46.044Z,18.50
2022-11-12T14:13:49.896Z,18.10
2022-11-12T14:17:21.945Z,21.10
2022-11-12T14:20:37.124Z,22.80
2022-11-12T14:23:27.164Z,24.70
2022-11-12T14:26:35.463Z,21.20
2022-11-12T14:29:23.284Z,26.10
2022-11-12T14:32:10.218Z,34.40
2022-11-12T14:34:57.354Z,24.10
2022-11-12T14:37:59.609Z,22.10
2022-11-12T14:40:56.378Z,22.50
2022-11-12T14:43:48.865Z,20.80
2022-11-12T14:46:48.912Z,20.70
2022-11-12T14:49:44.955Z,21.70
2022-11-12T14:52:40.691Z,19.90
2022-11-12T14:55:33.988Z,21.20
2022-11-12T14:58:23.969Z,22.30
2022-11-12T15:01:47.779Z,20.70
2022-11-12T15:04:26.342Z,19.30
2022-11-12T15:07:30.027Z,19.90
2022-11-12T15:10:32.305Z,22.30
2022-11-12T15:13:22.881Z,21.40
2022-11-12T15:16:12.220Z,20.00
2022-11-12T15:19:15.582Z,19.70
2022-11-12T15:22:04.468Z,20.10
2022-11-12T15:24:52.246Z,20.90
2022-11-12T15:27:42.777Z,19.70
2022-11-12T15:30:32.133Z,19.20
2022-11-12T15:33:22.689Z,20.40
2022-11-12T15:36:18.500Z,20.10
2022-11-12T15:39:13.403Z,19.00
2022-11-12T15:42:04.024Z,20.10
2022-11-12T15:44:56.600Z,19.20
2022-11-12T15:47:44.095Z,17.90
2022-11-12T15:50:34.753Z,17.20
2022-11-12T15:53:34.643Z,18.30
2022-11-12T15:56:23.096Z,20.20
2022-11-12T15:59:17.291Z,20.20
2022-11-12T16:02:11.248Z,18.90
2022-11-12T16:04:59.168Z,20.10
2022-11-12T16:07:46.518Z,22.20
2022-11-12T16:10:37.574Z,25.30
2022-11-12T16:13:27.902Z,21.40
2022-11-12T16:16:17.199Z,20.70
2022-11-12T16:19:05.071Z,23.10
2022-11-12T16:21:52.210Z,22.80
2022-11-12T16:24:40.907Z,21.50
2022-11-12T16:27:27.776Z,24.10
2022-11-12T16:30:20.855Z,25.20
2022-11-12T16:33:12.048Z,23.20
2022-11-12T16:35:58.962Z,22.20
2022-11-12T16:38:46.882Z,22.30
2022-11-12T16:41:33.423Z,23.60
2022-11-12T16:44:20.361Z,26.10
2022-11-12T16:47:11.069Z,27.10
2022-11-12T16:49:58.045Z,28.50
2022-11-12T16:52:45.125Z,26.20
2022-11-12T16:55:31.814Z,27.30
2022-11-12T16:58:18.304Z,25.10
2022-11-12T17:01:05.842Z,32.00
2022-11-12T17:03:54.824Z,28.60
2022-11-12T17:06:42.683Z,25.80
2022-11-12T17:09:30.043Z,23.40
2022-11-12T17:12:16.929Z,23.90
2022-11-12T17:15:05.518Z,25.20
2022-11-12T17:17:55.831Z,23.80
2022-11-12T17:20:48.358Z,23.20
2022-11-12T17:23:39.400Z,24.50
2022-11-12T17:26:26.888Z,24.40
2022-11-12T17:29:13.699Z,24.70
2022-11-12T17:32:00.820Z,23.30
2022-11-12T17:34:48.226Z,21.70
2022-11-12T17:37:35.273Z,26.90
2022-11-12T17:40:22.116Z,29.50
2022-11-12T17:43:09.327Z,32.40
2022-11-12T17:45:57.457Z,30.40
2022-11-12T17:48:44.817Z,25.60
2022-11-12T17:51:32.222Z,24.00
2022-11-12T17:54:21.475Z,26.80
2022-11-12T17:57:08.912Z,27.20
2022-11-12T18:00:00.036Z,28.30
2022-11-12T18:02:48.195Z,29.40
2022-11-12T18:05:42.933Z,27.50
2022-11-12T18:08:30.932Z,29.70
2022-11-12T18:11:21.247Z,31.50
2022-11-12T18:14:09.692Z,25.70
2022-11-12T18:16:59.725Z,25.90
2022-11-12T18:19:47.986Z,27.20
2022-11-12T18:22:40.737Z,27.30
2022-11-12T18:25:36.975Z,24.60
2022-11-12T18:28:24.169Z,24.80
2022-11-12T18:31:13.054Z,25.90
2022-11-12T18:34:00.177Z,25.80
2022-11-12T18:36:47.105Z,22.00
2022-11-12T18:39:34.730Z,22.50
2022-11-12T18:42:24.718Z,24.30
2022-11-12T18:45:12.662Z,53.60
2022-11-12T18:48:01.035Z,58.30
2022-11-12T18:50:47.640Z,33.90
2022-11-12T18:53:36.210Z,34.60
2022-11-12T18:56:23.841Z,42.70
2022-11-12T18:59:14.472Z,32.60
2022-11-12T19:02:03.579Z,33.10
2022-11-12T19:04:50.821Z,31.90
2022-11-12T19:07:38.758Z,34.60
2022-11-12T19:10:29.318Z,35.10
2022-11-12T19:13:18.572Z,29.50
2022-11-12T19:16:12.122Z,28.60
2022-11-12T19:19:00.508Z,27.80
2022-11-12T19:21:49.479Z,27.50
2022-11-12T19:24:38.567Z,30.20
2022-11-12T19:27:28.117Z,33.70
2022-11-12T19:30:18.014Z,38.10
2022-11-12T19:33:07.288Z,36.60
2022-11-12T19:35:54.886Z,37.90
2022-11-12T19:38:42.933Z,33.50
2022-11-12T19:41:30.413Z,33.80
2022-11-12T19:44:17.272Z,31.90
2022-11-12T19:47:04.897Z,33.40
2022-11-12T19:49:51.558Z,35.00
2022-11-12T19:52:38.478Z,33.80
2022-11-12T19:55:29.927Z,32.30
2022-11-12T19:58:17.319Z,34.70
2022-11-12T20:01:11.676Z,33.80
2022-11-12T20:03:59.812Z,34.00
2022-11-12T20:06:50.078Z,30.30
2022-11-12T20:09:38.183Z,34.20
2022-11-12T20:12:25.709Z,32.40
2022-11-12T20:15:13.502Z,31.50
2022-11-12T20:18:00.881Z,31.90
2022-11-12T20:20:53.851Z,35.20
2022-11-12T20:23:43.419Z,37.10
2022-11-12T20:26:30.798Z,34.60
2022-11-12T20:29:17.793Z,31.10
2022-11-12T20:32:05.352Z,33.00
2022-11-12T20:34:53.472Z,31.70
2022-11-12T20:37:43.645Z,33.80
2022-11-12T20:40:32.144Z,32.20
2022-11-12T20:43:19.472Z,33.00
2022-11-12T20:46:06.529Z,32.80
2022-11-12T20:48:57.184Z,35.10
2022-11-12T20:51:44.875Z,35.00
2022-11-12T20:54:31.855Z,33.30
2022-11-12T20:57:22.355Z,36.40
2022-11-12T21:00:13.706Z,31.40
2022-11-12T21:03:03.116Z,37.80
2022-11-12T21:05:58.293Z,40.70
2022-11-12T21:08:46.657Z,55.70
2022-11-12T21:11:33.938Z,67.00
2022-11-12T21:14:21.677Z,67.00
2022-11-12T21:17:08.509Z,79.80
2022-11-12T21:19:55.861Z,94.50
2022-11-12T21:22:42.722Z,73.60
2022-11-12T21:25:30.549Z,74.80
2022-11-12T21:28:17.424Z,96.00
2022-11-12T21:31:06.205Z,92.60
2022-11-12T21:34:00.450Z,96.20
2022-11-12T21:36:47.880Z,94.40
2022-11-12T21:39:37.019Z,97.60
2022-11-12T21:42:23.998Z,101.10
2022-11-12T21:45:12.080Z,94.70
2022-11-12T21:47:59.034Z,119.90
2022-11-12T21:50:46.132Z,135.70
2022-11-12T21:53:34.011Z,131.80
2022-11-12T21:56:20.726Z,116.10
2022-11-12T21:59:07.599Z,114.00
2022-11-12T22:01:55.081Z,142.80
2022-11-12T22:04:42.203Z,115.90
2022-11-12T22:07:29.735Z,125.90
2022-11-12T22:10:17.622Z,134.70
2022-11-12T22:13:26.019Z,138.90
2022-11-12T22:16:17.378Z,149.80
2022-11-12T22:19:04.418Z,144.40
2022-11-12T22:21:50.800Z,155.70
2022-11-12T22:24:39.823Z,152.10
2022-11-12T22:30:34.238Z,124.70
2022-11-12T22:33:20.185Z,139.70
2022-11-12T22:36:08.478Z,143.90
2022-11-12T22:38:55.326Z,138.10
2022-11-12T22:41:40.792Z,125.50
2022-11-12T22:44:25.894Z,161.00
2022-11-12T22:47:11.239Z,163.80
2022-11-12T22:49:57.004Z,148.30
2022-11-12T22:52:48.811Z,134.10
2022-11-12T22:55:35.286Z,143.60
2022-11-12T22:58:21.607Z,145.40
2022-11-12T23:01:10.763Z,143.60
2022-11-12T23:03:58.538Z,160.40
2022-11-12T23:06:43.810Z,154.50
2022-11-12T23:09:29.084Z,158.80
2022-11-12T23:12:15.563Z,166.20
2022-11-12T23:15:00.505Z,155.60
2022-11-12T23:17:45.795Z,155.20
2022-11-12T23:20:31.204Z,152.30
2022-11-12T23:23:16.430Z,159.80
2022-11-12T23:26:03.752Z,147.40
2022-11-12T23:28:49.016Z,151.70
2022-11-12T23:31:35.023Z,167.00
2022-11-12T23:34:21.228Z,163.50
2022-11-12T23:37:08.296Z,153.60
2022-11-12T23:39:54.531Z,161.90
2022-11-12T23:42:41.005Z,165.30
2022-11-12T23:45:26.300Z,156.10
2022-11-12T23:48:11.412Z,150.70
2022-11-12T23:51:05.901Z,151.50
2022-11-12T23:53:51.656Z,161.90
2022-11-12T23:56:36.773Z,156.20
2022-11-12T23:59:21.754Z,143.80
